sensor_id;sensor_type;location;lat;lon;timestamp;P1;durP1;ratioP1;P2;durP2;ratioP2
20896;SDS011;10608;42.600;23.398;2024-03-22T00:00:29;11.83;;;10.87;;
20896;SDS011;10608;42.600;23.398;2024-03-22T00:02:55;13.37;;;12.47;;
20896;SDS011;10608;42.600;23.398;2024-03-22T00:05:20;12.90;;;11.87;;
20896;SDS011;10608;42.600;23.398;2024-03-22T00:07:47;12.30;;;11.50;;
20896;SDS011;10608;42.600;23.398;2024-03-22T00:10:12;11.73;;;10.93;;
20896;SDS011;10608;42.600;23.398;2024-03-22T00:12:38;13.70;;;12.70;;
20896;SDS011;10608;42.600;23.398;2024-03-22T00:15:04;12.17;;;11.27;;
20896;SDS011;10608;42.600;23.398;2024-03-22T00:17:30;11.77;;;10.97;;
20896;SDS011;10608;42.600;23.398;2024-03-22T00:19:56;11.23;;;10.53;;
20896;SDS011;10608;42.600;23.398;2024-03-22T00:22:21;11.30;;;10.60;;
20896;SDS011;10608;42.600;23.398;2024-03-22T00:24:47;11.83;;;11.03;;
20896;SDS011;10608;42.600;23.398;2024-03-22T00:27:12;12.23;;;11.33;;
20896;SDS011;10608;42.600;23.398;2024-03-22T00:29:38;11.73;;;10.90;;
20896;SDS011;10608;42.600;23.398;2024-03-22T00:32:03;11.23;;;10.53;;
20896;SDS011;10608;42.600;23.398;2024-03-22T00:34:29;11.73;;;10.93;;
20896;SDS011;10608;42.600;23.398;2024-03-22T00:36:55;12.63;;;11.73;;
20896;SDS011;10608;42.600;23.398;2024-03-22T00:39:20;11.77;;;10.97;;
20896;SDS011;10608;42.600;23.398;2024-03-22T00:41:46;11.43;;;10.60;;
20896;SDS011;10608;42.600;23.398;2024-03-22T00:44:11;11.83;;;11.03;;
20896;SDS011;10608;42.600;23.398;2024-03-22T00:46:36;12.43;;;11.27;;
20896;SDS011;10608;42.600;23.398;2024-03-22T00:49:02;12.80;;;11.70;;
20896;SDS011;10608;42.600;23.398;2024-03-22T00:51:28;13.93;;;12.93;;
20896;SDS011;10608;42.600;23.398;2024-03-22T00:53:53;13.43;;;12.43;;
20896;SDS011;10608;42.600;23.398;2024-03-22T00:56:19;12.00;;;11.07;;
20896;SDS011;10608;42.600;23.398;2024-03-22T00:58:44;11.53;;;10.60;;
20896;SDS011;10608;42.600;23.398;2024-03-22T01:01:10;10.80;;;10.03;;
20896;SDS011;10608;42.600;23.398;2024-03-22T01:03:35;12.10;;;11.07;;
20896;SDS011;10608;42.600;23.398;2024-03-22T01:06:01;11.37;;;10.20;;
20896;SDS011;10608;42.600;23.398;2024-03-22T01:08:26;10.73;;;10.03;;
20896;SDS011;10608;42.600;23.398;2024-03-22T01:10:52;11.90;;;10.80;;
20896;SDS011;10608;42.600;23.398;2024-03-22T01:13:18;12.47;;;11.37;;
20896;SDS011;10608;42.600;23.398;2024-03-22T01:15:43;11.07;;;10.27;;
20896;SDS011;10608;42.600;23.398;2024-03-22T01:18:09;12.70;;;11.60;;
20896;SDS011;10608;42.600;23.398;2024-03-22T01:20:34;12.37;;;10.93;;
20896;SDS011;10608;42.600;23.398;2024-03-22T01:23:00;11.33;;;10.53;;
20896;SDS011;10608;42.600;23.398;2024-03-22T01:25:26;12.27;;;11.17;;
20896;SDS011;10608;42.600;23.398;2024-03-22T01:27:52;12.47;;;11.47;;
20896;SDS011;10608;42.600;23.398;2024-03-22T01:30:17;12.17;;;11.23;;
20896;SDS011;10608;42.600;23.398;2024-03-22T01:32:42;11.23;;;10.13;;
20896;SDS011;10608;42.600;23.398;2024-03-22T01:35:08;12.07;;;11.07;;
20896;SDS011;10608;42.600;23.398;2024-03-22T01:37:33;11.70;;;10.90;;
20896;SDS011;10608;42.600;23.398;2024-03-22T01:39:59;11.77;;;10.87;;
20896;SDS011;10608;42.600;23.398;2024-03-22T01:42:24;11.83;;;10.93;;
20896;SDS011;10608;42.600;23.398;2024-03-22T01:44:50;12.70;;;11.47;;
20896;SDS011;10608;42.600;23.398;2024-03-22T01:47:15;13.03;;;11.93;;
20896;SDS011;10608;42.600;23.398;2024-03-22T01:49:42;13.70;;;12.17;;
20896;SDS011;10608;42.600;23.398;2024-03-22T01:52:08;12.90;;;11.73;;
20896;SDS011;10608;42.600;23.398;2024-03-22T01:54:33;13.20;;;11.37;;
20896;SDS011;10608;42.600;23.398;2024-03-22T01:56:59;12.20;;;11.20;;
20896;SDS011;10608;42.600;23.398;2024-03-22T01:59:26;12.70;;;11.60;;
20896;SDS011;10608;42.600;23.398;2024-03-22T02:01:53;14.07;;;12.97;;
20896;SDS011;10608;42.600;23.398;2024-03-22T02:04:18;14.23;;;13.13;;
20896;SDS011;10608;42.600;23.398;2024-03-22T02:06:44;12.47;;;11.37;;
20896;SDS011;10608;42.600;23.398;2024-03-22T02:09:09;12.27;;;11.27;;
20896;SDS011;10608;42.600;23.398;2024-03-22T02:11:36;13.37;;;12.27;;
20896;SDS011;10608;42.600;23.398;2024-03-22T02:14:04;12.53;;;11.60;;
20896;SDS011;10608;42.600;23.398;2024-03-22T02:16:30;13.23;;;12.23;;
20896;SDS011;10608;42.600;23.398;2024-03-22T02:18:55;11.53;;;10.63;;
20896;SDS011;10608;42.600;23.398;2024-03-22T02:21:21;12.93;;;11.83;;
20896;SDS011;10608;42.600;23.398;2024-03-22T02:23:46;12.33;;;11.43;;
20896;SDS011;10608;42.600;23.398;2024-03-22T02:26:12;12.70;;;11.77;;
20896;SDS011;10608;42.600;23.398;2024-03-22T02:28:37;13.60;;;12.27;;
20896;SDS011;10608;42.600;23.398;2024-03-22T02:31:03;13.83;;;12.63;;
20896;SDS011;10608;42.600;23.398;2024-03-22T02:33:28;12.50;;;11.33;;
20896;SDS011;10608;42.600;23.398;2024-03-22T02:35:54;15.67;;;13.93;;
20896;SDS011;10608;42.600;23.398;2024-03-22T02:38:19;14.40;;;13.27;;
20896;SDS011;10608;42.600;23.398;2024-03-22T02:40:46;14.13;;;12.83;;
20896;SDS011;10608;42.600;23.398;2024-03-22T02:43:12;14.63;;;13.37;;
20896;SDS011;10608;42.600;23.398;2024-03-22T02:45:38;16.03;;;14.43;;
20896;SDS011;10608;42.600;23.398;2024-03-22T02:48:04;15.50;;;14.17;;
20896;SDS011;10608;42.600;23.398;2024-03-22T02:50:33;16.87;;;15.57;;
20896;SDS011;10608;42.600;23.398;2024-03-22T02:52:59;15.70;;;14.17;;
20896;SDS011;10608;42.600;23.398;2024-03-22T02:55:24;13.93;;;12.87;;
20896;SDS011;10608;42.600;23.398;2024-03-22T02:57:49;13.67;;;12.57;;
20896;SDS011;10608;42.600;23.398;2024-03-22T03:00:15;14.67;;;13.07;;
20896;SDS011;10608;42.600;23.398;2024-03-22T03:02:40;14.47;;;13.03;;
20896;SDS011;10608;42.600;23.398;2024-03-22T03:05:06;15.40;;;14.00;;
20896;SDS011;10608;42.600;23.398;2024-03-22T03:07:31;14.60;;;13.43;;
20896;SDS011;10608;42.600;23.398;2024-03-22T03:09:57;14.73;;;13.43;;
20896;SDS011;10608;42.600;23.398;2024-03-22T03:12:22;13.67;;;12.57;;
20896;SDS011;10608;42.600;23.398;2024-03-22T03:14:47;13.83;;;12.50;;
20896;SDS011;10608;42.600;23.398;2024-03-22T03:17:13;13.57;;;12.40;;
20896;SDS011;10608;42.600;23.398;2024-03-22T03:19:38;14.90;;;13.60;;
20896;SDS011;10608;42.600;23.398;2024-03-22T03:22:04;14.93;;;13.63;;
20896;SDS011;10608;42.600;23.398;2024-03-22T03:24:29;14.13;;;13.03;;
20896;SDS011;10608;42.600;23.398;2024-03-22T03:26:55;15.33;;;12.47;;
20896;SDS011;10608;42.600;23.398;2024-03-22T03:29:20;15.00;;;14.00;;
20896;SDS011;10608;42.600;23.398;2024-03-22T03:31:45;13.03;;;11.93;;
20896;SDS011;10608;42.600;23.398;2024-03-22T03:34:12;13.80;;;12.60;;
20896;SDS011;10608;42.600;23.398;2024-03-22T03:36:37;12.20;;;11.40;;
20896;SDS011;10608;42.600;23.398;2024-03-22T03:39:03;13.33;;;12.30;;
20896;SDS011;10608;42.600;23.398;2024-03-22T03:41:31;13.97;;;12.63;;
20896;SDS011;10608;42.600;23.398;2024-03-22T03:43:57;14.33;;;12.97;;
20896;SDS011;10608;42.600;23.398;2024-03-22T03:46:22;13.87;;;12.73;;
20896;SDS011;10608;42.600;23.398;2024-03-22T03:48:48;14.50;;;13.30;;
20896;SDS011;10608;42.600;23.398;2024-03-22T03:51:13;13.13;;;11.97;;
20896;SDS011;10608;42.600;23.398;2024-03-22T03:53:38;13.97;;;12.77;;
20896;SDS011;10608;42.600;23.398;2024-03-22T03:56:04;14.27;;;13.07;;
20896;SDS011;10608;42.600;23.398;2024-03-22T03:58:29;13.57;;;12.43;;
20896;SDS011;10608;42.600;23.398;2024-03-22T04:00:55;14.30;;;13.03;;
20896;SDS011;10608;42.600;23.398;2024-03-22T04:03:20;13.00;;;12.00;;
20896;SDS011;10608;42.600;23.398;2024-03-22T04:05:45;13.00;;;11.90;;
20896;SDS011;10608;42.600;23.398;2024-03-22T04:08:11;13.40;;;12.37;;
20896;SDS011;10608;42.600;23.398;2024-03-22T04:10:36;14.93;;;13.63;;
20896;SDS011;10608;42.600;23.398;2024-03-22T04:13:02;15.23;;;14.03;;
20896;SDS011;10608;42.600;23.398;2024-03-22T04:15:27;14.67;;;13.30;;
20896;SDS011;10608;42.600;23.398;2024-03-22T04:17:54;15.70;;;14.03;;
20896;SDS011;10608;42.600;23.398;2024-03-22T04:20:21;15.43;;;14.13;;
20896;SDS011;10608;42.600;23.398;2024-03-22T04:22:46;15.37;;;14.07;;
20896;SDS011;10608;42.600;23.398;2024-03-22T04:25:14;14.27;;;13.07;;
20896;SDS011;10608;42.600;23.398;2024-03-22T04:27:40;14.43;;;13.13;;
20896;SDS011;10608;42.600;23.398;2024-03-22T04:30:05;14.83;;;13.73;;
20896;SDS011;10608;42.600;23.398;2024-03-22T04:32:31;16.60;;;15.07;;
20896;SDS011;10608;42.600;23.398;2024-03-22T04:34:56;16.17;;;14.97;;
20896;SDS011;10608;42.600;23.398;2024-03-22T04:37:22;16.40;;;15.10;;
20896;SDS011;10608;42.600;23.398;2024-03-22T04:39:48;17.13;;;15.83;;
20896;SDS011;10608;42.600;23.398;2024-03-22T04:42:14;17.13;;;15.83;;
20896;SDS011;10608;42.600;23.398;2024-03-22T04:44:40;17.30;;;15.80;;
20896;SDS011;10608;42.600;23.398;2024-03-22T04:47:06;18.13;;;16.50;;
20896;SDS011;10608;42.600;23.398;2024-03-22T04:49:32;18.67;;;16.77;;
20896;SDS011;10608;42.600;23.398;2024-03-22T04:51:57;17.90;;;16.20;;
20896;SDS011;10608;42.600;23.398;2024-03-22T04:54:22;14.80;;;13.80;;
20896;SDS011;10608;42.600;23.398;2024-03-22T04:56:48;16.00;;;14.77;;
20896;SDS011;10608;42.600;23.398;2024-03-22T04:59:13;15.80;;;14.40;;
20896;SDS011;10608;42.600;23.398;2024-03-22T05:01:39;16.63;;;15.33;;
20896;SDS011;10608;42.600;23.398;2024-03-22T05:04:04;15.00;;;13.60;;
20896;SDS011;10608;42.600;23.398;2024-03-22T05:06:29;15.10;;;13.83;;
20896;SDS011;10608;42.600;23.398;2024-03-22T05:08:55;15.53;;;14.13;;
20896;SDS011;10608;42.600;23.398;2024-03-22T05:11:20;14.27;;;12.87;;
20896;SDS011;10608;42.600;23.398;2024-03-22T05:13:46;14.67;;;13.17;;
20896;SDS011;10608;42.600;23.398;2024-03-22T05:16:11;16.93;;;15.50;;
20896;SDS011;10608;42.600;23.398;2024-03-22T05:18:37;14.73;;;13.37;;
20896;SDS011;10608;42.600;23.398;2024-03-22T05:21:03;16.33;;;15.03;;
20896;SDS011;10608;42.600;23.398;2024-03-22T05:23:28;15.60;;;14.33;;
20896;SDS011;10608;42.600;23.398;2024-03-22T05:25:54;14.43;;;13.07;;
20896;SDS011;10608;42.600;23.398;2024-03-22T05:28:19;14.43;;;12.97;;
20896;SDS011;10608;42.600;23.398;2024-03-22T05:30:44;14.53;;;13.30;;
20896;SDS011;10608;42.600;23.398;2024-03-22T05:33:10;14.80;;;13.50;;
20896;SDS011;10608;42.600;23.398;2024-03-22T05:35:36;13.93;;;12.53;;
20896;SDS011;10608;42.600;23.398;2024-03-22T05:38:01;13.17;;;11.97;;
20896;SDS011;10608;42.600;23.398;2024-03-22T05:40:27;14.10;;;12.80;;
20896;SDS011;10608;42.600;23.398;2024-03-22T05:42:52;14.07;;;12.70;;
20896;SDS011;10608;42.600;23.398;2024-03-22T05:45:17;16.27;;;15.00;;
20896;SDS011;10608;42.600;23.398;2024-03-22T05:47:43;15.47;;;12.73;;
20896;SDS011;10608;42.600;23.398;2024-03-22T05:50:08;20.30;;;14.43;;
20896;SDS011;10608;42.600;23.398;2024-03-22T05:52:34;13.37;;;12.27;;
20896;SDS011;10608;42.600;23.398;2024-03-22T05:55:00;16.87;;;12.00;;
20896;SDS011;10608;42.600;23.398;2024-03-22T05:57:25;13.50;;;12.23;;
20896;SDS011;10608;42.600;23.398;2024-03-22T05:59:51;14.00;;;12.70;;
20896;SDS011;10608;42.600;23.398;2024-03-22T06:02:18;12.23;;;11.33;;
20896;SDS011;10608;42.600;23.398;2024-03-22T06:04:43;15.33;;;13.20;;
20896;SDS011;10608;42.600;23.398;2024-03-22T06:07:09;13.10;;;11.93;;
20896;SDS011;10608;42.600;23.398;2024-03-22T06:09:35;13.27;;;12.17;;
20896;SDS011;10608;42.600;23.398;2024-03-22T06:12:10;14.13;;;13.13;;
20896;SDS011;10608;42.600;23.398;2024-03-22T06:14:36;12.33;;;11.43;;
20896;SDS011;10608;42.600;23.398;2024-03-22T06:17:03;15.10;;;12.77;;
20896;SDS011;10608;42.600;23.398;2024-03-22T06:19:28;18.67;;;12.93;;
20896;SDS011;10608;42.600;23.398;2024-03-22T06:21:54;14.07;;;12.77;;
20896;SDS011;10608;42.600;23.398;2024-03-22T06:24:19;13.93;;;12.80;;
20896;SDS011;10608;42.600;23.398;2024-03-22T06:26:45;17.57;;;16.27;;
20896;SDS011;10608;42.600;23.398;2024-03-22T06:29:10;22.03;;;20.43;;
20896;SDS011;10608;42.600;23.398;2024-03-22T06:31:35;28.77;;;26.77;;
20896;SDS011;10608;42.600;23.398;2024-03-22T06:34:01;19.80;;;18.30;;
20896;SDS011;10608;42.600;23.398;2024-03-22T06:36:30;15.37;;;14.20;;
20896;SDS011;10608;42.600;23.398;2024-03-22T06:38:57;13.27;;;12.30;;
20896;SDS011;10608;42.600;23.398;2024-03-22T06:41:24;18.40;;;17.17;;
20896;SDS011;10608;42.600;23.398;2024-03-22T06:43:50;22.60;;;21.37;;
20896;SDS011;10608;42.600;23.398;2024-03-22T06:46:15;25.57;;;23.90;;
20896;SDS011;10608;42.600;23.398;2024-03-22T06:48:41;14.90;;;13.80;;
20896;SDS011;10608;42.600;23.398;2024-03-22T06:51:06;14.70;;;13.60;;
20896;SDS011;10608;42.600;23.398;2024-03-22T06:53:32;14.97;;;13.83;;
20896;SDS011;10608;42.600;23.398;2024-03-22T06:55:57;12.47;;;11.57;;
20896;SDS011;10608;42.600;23.398;2024-03-22T06:58:22;12.87;;;11.77;;
20896;SDS011;10608;42.600;23.398;2024-03-22T07:00:48;12.93;;;11.93;;
20896;SDS011;10608;42.600;23.398;2024-03-22T07:03:14;16.80;;;15.40;;
20896;SDS011;10608;42.600;23.398;2024-03-22T07:05:39;15.57;;;14.13;;
20896;SDS011;10608;42.600;23.398;2024-03-22T07:08:05;14.20;;;12.97;;
20896;SDS011;10608;42.600;23.398;2024-03-22T07:10:30;20.93;;;18.73;;
20896;SDS011;10608;42.600;23.398;2024-03-22T07:12:57;23.50;;;21.17;;
20896;SDS011;10608;42.600;23.398;2024-03-22T07:15:23;18.37;;;16.47;;
20896;SDS011;10608;42.600;23.398;2024-03-22T07:17:49;18.83;;;16.77;;
20896;SDS011;10608;42.600;23.398;2024-03-22T07:20:14;18.33;;;16.73;;
20896;SDS011;10608;42.600;23.398;2024-03-22T07:22:40;16.80;;;15.23;;
20896;SDS011;10608;42.600;23.398;2024-03-22T07:25:05;14.23;;;13.03;;
20896;SDS011;10608;42.600;23.398;2024-03-22T07:27:31;14.03;;;12.70;;
20896;SDS011;10608;42.600;23.398;2024-03-22T07:29:56;12.47;;;11.37;;
20896;SDS011;10608;42.600;23.398;2024-03-22T07:32:22;12.60;;;11.50;;
20896;SDS011;10608;42.600;23.398;2024-03-22T07:34:47;13.83;;;12.67;;
20896;SDS011;10608;42.600;23.398;2024-03-22T07:37:13;12.90;;;11.70;;
20896;SDS011;10608;42.600;23.398;2024-03-22T07:39:38;17.83;;;13.53;;
20896;SDS011;10608;42.600;23.398;2024-03-22T07:42:04;11.90;;;10.90;;
20896;SDS011;10608;42.600;23.398;2024-03-22T07:44:29;12.47;;;11.27;;
20896;SDS011;10608;42.600;23.398;2024-03-22T07:46:54;13.47;;;12.37;;
20896;SDS011;10608;42.600;23.398;2024-03-22T07:49:20;13.20;;;11.90;;
20896;SDS011;10608;42.600;23.398;2024-03-22T07:51:45;11.00;;;10.00;;
20896;SDS011;10608;42.600;23.398;2024-03-22T07:54:11;11.80;;;10.80;;
20896;SDS011;10608;42.600;23.398;2024-03-22T07:56:36;11.67;;;10.73;;
20896;SDS011;10608;42.600;23.398;2024-03-22T07:59:02;13.27;;;12.07;;
20896;SDS011;10608;42.600;23.398;2024-03-22T08:01:27;10.67;;;9.53;;
20896;SDS011;10608;42.600;23.398;2024-03-22T08:03:53;11.80;;;11.00;;
20896;SDS011;10608;42.600;23.398;2024-03-22T08:06:18;13.57;;;12.43;;
20896;SDS011;10608;42.600;23.398;2024-03-22T08:08:44;11.63;;;10.83;;
20896;SDS011;10608;42.600;23.398;2024-03-22T08:11:10;13.63;;;12.37;;
20896;SDS011;10608;42.600;23.398;2024-03-22T08:13:35;11.83;;;11.03;;
20896;SDS011;10608;42.600;23.398;2024-03-22T08:16:01;10.93;;;10.23;;
20896;SDS011;10608;42.600;23.398;2024-03-22T08:18:27;14.03;;;13.03;;
20896;SDS011;10608;42.600;23.398;2024-03-22T08:20:52;14.20;;;13.37;;
20896;SDS011;10608;42.600;23.398;2024-03-22T08:23:17;13.20;;;12.30;;
20896;SDS011;10608;42.600;23.398;2024-03-22T08:25:47;15.80;;;15.00;;
20896;SDS011;10608;42.600;23.398;2024-03-22T08:28:13;16.33;;;15.33;;
20896;SDS011;10608;42.600;23.398;2024-03-22T08:30:39;14.33;;;13.00;;
20896;SDS011;10608;42.600;23.398;2024-03-22T08:33:04;15.67;;;14.47;;
20896;SDS011;10608;42.600;23.398;2024-03-22T08:35:30;15.43;;;14.27;;
20896;SDS011;10608;42.600;23.398;2024-03-22T08:37:56;16.10;;;14.90;;
20896;SDS011;10608;42.600;23.398;2024-03-22T08:40:21;12.17;;;11.33;;
20896;SDS011;10608;42.600;23.398;2024-03-22T08:42:48;13.67;;;12.77;;
20896;SDS011;10608;42.600;23.398;2024-03-22T08:45:13;11.17;;;10.40;;
20896;SDS011;10608;42.600;23.398;2024-03-22T08:47:39;11.80;;;10.80;;
20896;SDS011;10608;42.600;23.398;2024-03-22T08:50:06;13.57;;;12.77;;
20896;SDS011;10608;42.600;23.398;2024-03-22T08:52:31;12.97;;;12.20;;
20896;SDS011;10608;42.600;23.398;2024-03-22T08:54:59;16.07;;;15.07;;
20896;SDS011;10608;42.600;23.398;2024-03-22T08:57:24;15.80;;;14.80;;
20896;SDS011;10608;42.600;23.398;2024-03-22T08:59:50;14.13;;;13.30;;
20896;SDS011;10608;42.600;23.398;2024-03-22T09:02:15;10.20;;;9.60;;
20896;SDS011;10608;42.600;23.398;2024-03-22T09:04:41;13.60;;;12.83;;
20896;SDS011;10608;42.600;23.398;2024-03-22T09:07:07;14.83;;;13.83;;
20896;SDS011;10608;42.600;23.398;2024-03-22T09:09:32;12.50;;;11.80;;
20896;SDS011;10608;42.600;23.398;2024-03-22T09:11:58;11.13;;;10.43;;
20896;SDS011;10608;42.600;23.398;2024-03-22T09:14:23;13.60;;;12.67;;
20896;SDS011;10608;42.600;23.398;2024-03-22T09:16:48;11.27;;;10.47;;
20896;SDS011;10608;42.600;23.398;2024-03-22T09:19:14;9.20;;;8.67;;
20896;SDS011;10608;42.600;23.398;2024-03-22T09:21:39;12.07;;;11.37;;
20896;SDS011;10608;42.600;23.398;2024-03-22T09:24:05;11.97;;;11.23;;
20896;SDS011;10608;42.600;23.398;2024-03-22T09:26:32;9.53;;;8.83;;
20896;SDS011;10608;42.600;23.398;2024-03-22T09:28:58;9.53;;;8.97;;
20896;SDS011;10608;42.600;23.398;2024-03-22T09:31:23;10.03;;;9.43;;
20896;SDS011;10608;42.600;23.398;2024-03-22T09:33:49;9.27;;;8.77;;
20896;SDS011;10608;42.600;23.398;2024-03-22T09:36:14;9.03;;;8.33;;
20896;SDS011;10608;42.600;23.398;2024-03-22T09:38:41;16.20;;;15.23;;
20896;SDS011;10608;42.600;23.398;2024-03-22T09:41:06;18.37;;;17.27;;
20896;SDS011;10608;42.600;23.398;2024-03-22T09:43:32;19.07;;;17.97;;
20896;SDS011;10608;42.600;23.398;2024-03-22T09:45:59;12.00;;;10.97;;
20896;SDS011;10608;42.600;23.398;2024-03-22T09:48:26;17.63;;;16.63;;
20896;SDS011;10608;42.600;23.398;2024-03-22T09:50:51;12.90;;;12.10;;
20896;SDS011;10608;42.600;23.398;2024-03-22T09:53:18;20.50;;;19.53;;
20896;SDS011;10608;42.600;23.398;2024-03-22T09:55:46;11.27;;;10.47;;
20896;SDS011;10608;42.600;23.398;2024-03-22T09:58:12;9.20;;;8.30;;
20896;SDS011;10608;42.600;23.398;2024-03-22T10:00:37;9.20;;;8.60;;
20896;SDS011;10608;42.600;23.398;2024-03-22T10:03:03;9.70;;;9.00;;
20896;SDS011;10608;42.600;23.398;2024-03-22T10:05:29;8.37;;;7.77;;
20896;SDS011;10608;42.600;23.398;2024-03-22T10:07:55;9.17;;;8.50;;
20896;SDS011;10608;42.600;23.398;2024-03-22T10:10:20;9.63;;;8.80;;
20896;SDS011;10608;42.600;23.398;2024-03-22T10:12:46;10.80;;;10.10;;
20896;SDS011;10608;42.600;23.398;2024-03-22T10:15:12;17.67;;;16.67;;
20896;SDS011;10608;42.600;23.398;2024-03-22T10:17:38;10.50;;;9.90;;
20896;SDS011;10608;42.600;23.398;2024-03-22T10:20:05;13.37;;;12.53;;
20896;SDS011;10608;42.600;23.398;2024-03-22T10:22:37;9.63;;;9.03;;
20896;SDS011;10608;42.600;23.398;2024-03-22T10:25:04;10.50;;;9.60;;
20896;SDS011;10608;42.600;23.398;2024-03-22T10:27:31;11.10;;;10.30;;
20896;SDS011;10608;42.600;23.398;2024-03-22T10:29:57;11.20;;;10.60;;
20896;SDS011;10608;42.600;23.398;2024-03-22T10:32:23;9.50;;;8.90;;
20896;SDS011;10608;42.600;23.398;2024-03-22T10:34:48;10.07;;;9.27;;
20896;SDS011;10608;42.600;23.398;2024-03-22T10:37:15;10.70;;;9.90;;
20896;SDS011;10608;42.600;23.398;2024-03-22T10:39:42;10.20;;;9.40;;
20896;SDS011;10608;42.600;23.398;2024-03-22T10:42:09;10.80;;;10.10;;
20896;SDS011;10608;42.600;23.398;2024-03-22T10:44:35;10.97;;;10.07;;
20896;SDS011;10608;42.600;23.398;2024-03-22T10:47:01;10.13;;;9.33;;
20896;SDS011;10608;42.600;23.398;2024-03-22T10:49:29;9.10;;;8.60;;
20896;SDS011;10608;42.600;23.398;2024-03-22T10:51:58;9.83;;;9.13;;
20896;SDS011;10608;42.600;23.398;2024-03-22T10:54:32;10.17;;;9.47;;
20896;SDS011;10608;42.600;23.398;2024-03-22T10:57:01;9.93;;;9.27;;
20896;SDS011;10608;42.600;23.398;2024-03-22T10:59:32;8.90;;;8.33;;
20896;SDS011;10608;42.600;23.398;2024-03-22T11:02:02;10.97;;;10.17;;
20896;SDS011;10608;42.600;23.398;2024-03-22T11:04:30;9.97;;;9.37;;
20896;SDS011;10608;42.600;23.398;2024-03-22T11:06:56;9.50;;;8.80;;
20896;SDS011;10608;42.600;23.398;2024-03-22T11:09:23;10.23;;;9.53;;
20896;SDS011;10608;42.600;23.398;2024-03-22T11:11:52;9.73;;;9.10;;
20896;SDS011;10608;42.600;23.398;2024-03-22T11:14:18;10.17;;;9.27;;
20896;SDS011;10608;42.600;23.398;2024-03-22T11:16:49;9.23;;;8.43;;
20896;SDS011;10608;42.600;23.398;2024-03-22T11:19:15;9.13;;;8.27;;
20896;SDS011;10608;42.600;23.398;2024-03-22T11:21:40;9.33;;;8.73;;
20896;SDS011;10608;42.600;23.398;2024-03-22T11:24:06;9.83;;;9.03;;
20896;SDS011;10608;42.600;23.398;2024-03-22T11:26:32;8.77;;;8.17;;
20896;SDS011;10608;42.600;23.398;2024-03-22T11:28:58;9.13;;;8.53;;
20896;SDS011;10608;42.600;23.398;2024-03-22T11:31:24;9.10;;;8.50;;
20896;SDS011;10608;42.600;23.398;2024-03-22T11:33:55;10.03;;;9.23;;
20896;SDS011;10608;42.600;23.398;2024-03-22T11:36:21;10.97;;;9.90;;
20896;SDS011;10608;42.600;23.398;2024-03-22T11:38:47;9.77;;;8.93;;
20896;SDS011;10608;42.600;23.398;2024-03-22T11:41:19;9.80;;;9.20;;
20896;SDS011;10608;42.600;23.398;2024-03-22T11:43:50;8.40;;;7.87;;
20896;SDS011;10608;42.600;23.398;2024-03-22T11:46:16;10.00;;;9.30;;
20896;SDS011;10608;42.600;23.398;2024-03-22T11:48:42;9.73;;;9.03;;
20896;SDS011;10608;42.600;23.398;2024-03-22T11:51:08;9.00;;;8.50;;
20896;SDS011;10608;42.600;23.398;2024-03-22T11:53:37;9.20;;;8.60;;
20896;SDS011;10608;42.600;23.398;2024-03-22T11:56:03;9.30;;;8.50;;
20896;SDS011;10608;42.600;23.398;2024-03-22T11:58:29;9.53;;;8.93;;
20896;SDS011;10608;42.600;23.398;2024-03-22T12:00:58;11.07;;;10.13;;
20896;SDS011;10608;42.600;23.398;2024-03-22T12:03:24;10.33;;;9.63;;
20896;SDS011;10608;42.600;23.398;2024-03-22T12:05:49;9.60;;;8.90;;
20896;SDS011;10608;42.600;23.398;2024-03-22T12:08:17;9.03;;;8.37;;
20896;SDS011;10608;42.600;23.398;2024-03-22T12:10:43;10.37;;;9.47;;
20896;SDS011;10608;42.600;23.398;2024-03-22T12:13:09;8.80;;;8.13;;
20896;SDS011;10608;42.600;23.398;2024-03-22T12:15:34;10.37;;;9.53;;
20896;SDS011;10608;42.600;23.398;2024-03-22T12:18:00;9.53;;;8.83;;
20896;SDS011;10608;42.600;23.398;2024-03-22T12:20:25;9.50;;;8.90;;
20896;SDS011;10608;42.600;23.398;2024-03-22T12:22:52;9.63;;;9.03;;
20896;SDS011;10608;42.600;23.398;2024-03-22T12:25:17;9.60;;;9.00;;
20896;SDS011;10608;42.600;23.398;2024-03-22T12:27:43;9.67;;;8.97;;
20896;SDS011;10608;42.600;23.398;2024-03-22T12:30:09;9.10;;;8.50;;
20896;SDS011;10608;42.600;23.398;2024-03-22T12:32:35;9.50;;;8.90;;
20896;SDS011;10608;42.600;23.398;2024-03-22T12:35:01;8.73;;;8.23;;
20896;SDS011;10608;42.600;23.398;2024-03-22T12:37:26;8.93;;;8.33;;
20896;SDS011;10608;42.600;23.398;2024-03-22T12:39:52;8.80;;;8.20;;
20896;SDS011;10608;42.600;23.398;2024-03-22T12:42:18;9.20;;;8.60;;
20896;SDS011;10608;42.600;23.398;2024-03-22T12:44:44;8.73;;;7.93;;
20896;SDS011;10608;42.600;23.398;2024-03-22T12:47:09;9.50;;;8.90;;
20896;SDS011;10608;42.600;23.398;2024-03-22T12:49:35;7.63;;;7.20;;
20896;SDS011;10608;42.600;23.398;2024-03-22T12:52:00;9.73;;;9.00;;
20896;SDS011;10608;42.600;23.398;2024-03-22T12:54:25;9.43;;;8.63;;
20896;SDS011;10608;42.600;23.398;2024-03-22T12:56:51;10.50;;;9.67;;
20896;SDS011;10608;42.600;23.398;2024-03-22T12:59:16;8.60;;;8.10;;
20896;SDS011;10608;42.600;23.398;2024-03-22T13:01:42;8.83;;;8.33;;
20896;SDS011;10608;42.600;23.398;2024-03-22T13:04:08;9.67;;;9.07;;
20896;SDS011;10608;42.600;23.398;2024-03-22T13:06:34;10.03;;;9.33;;
20896;SDS011;10608;42.600;23.398;2024-03-22T13:08:59;9.53;;;8.93;;
20896;SDS011;10608;42.600;23.398;2024-03-22T13:11:25;9.50;;;8.90;;
20896;SDS011;10608;42.600;23.398;2024-03-22T13:13:51;9.37;;;8.77;;
20896;SDS011;10608;42.600;23.398;2024-03-22T13:16:17;9.57;;;8.97;;
20896;SDS011;10608;42.600;23.398;2024-03-22T13:18:43;9.27;;;8.67;;
20896;SDS011;10608;42.600;23.398;2024-03-22T13:21:09;8.60;;;8.10;;
20896;SDS011;10608;42.600;23.398;2024-03-22T13:23:36;8.87;;;8.30;;
20896;SDS011;10608;42.600;23.398;2024-03-22T13:26:02;9.17;;;8.57;;
20896;SDS011;10608;42.600;23.398;2024-03-22T13:28:29;9.83;;;9.23;;
20896;SDS011;10608;42.600;23.398;2024-03-22T13:31:03;9.47;;;8.87;;
20896;SDS011;10608;42.600;23.398;2024-03-22T13:33:33;9.40;;;8.80;;
20896;SDS011;10608;42.600;23.398;2024-03-22T13:35:59;8.23;;;7.67;;
20896;SDS011;10608;42.600;23.398;2024-03-22T13:38:26;8.73;;;8.13;;
20896;SDS011;10608;42.600;23.398;2024-03-22T13:40:55;9.27;;;8.53;;
20896;SDS011;10608;42.600;23.398;2024-03-22T13:43:21;8.90;;;8.30;;
20896;SDS011;10608;42.600;23.398;2024-03-22T13:45:49;9.07;;;8.27;;
20896;SDS011;10608;42.600;23.398;2024-03-22T13:48:20;9.47;;;8.67;;
20896;SDS011;10608;42.600;23.398;2024-03-22T13:50:52;10.23;;;9.50;;
20896;SDS011;10608;42.600;23.398;2024-03-22T13:53:21;11.77;;;9.73;;
20896;SDS011;10608;42.600;23.398;2024-03-22T13:55:50;8.67;;;8.07;;
20896;SDS011;10608;42.600;23.398;2024-03-22T13:58:17;9.37;;;8.67;;
20896;SDS011;10608;42.600;23.398;2024-03-22T14:00:43;11.87;;;10.37;;
20896;SDS011;10608;42.600;23.398;2024-03-22T14:03:09;10.60;;;9.97;;
20896;SDS011;10608;42.600;23.398;2024-03-22T14:05:35;10.50;;;9.80;;
20896;SDS011;10608;42.600;23.398;2024-03-22T14:08:00;10.53;;;9.67;;